Linwood Park, Ohio
Current Conditions -  °F | °C
As of 10:53 PM on Saturday 25 Oct 2014 (Local Time) from KLPR Reporting Station
Light Rain Light Rain  
Wind Chill: 57°   Ceiling: Unl
Heat Index: 57°   Visibility: 10mi
Dew Point: 33°   Wind: 14mph
Humidity: 40%   Direction: 310°NW
Pressure: 29.83"   Gusts: 25mph
Location:  41.3884°N, 82.3643°W
Report Text: KLPR 260253Z AUTO 31012G22KT 10SM -RA CLR 14/01 A2983 RMK AO2 SLP099 P0000 60000 T01390006 51013 TSNO
Loading
Personal Weather Stations






























Interactive Weather Map
Tropical Storm Tracking
New forecast layout! Learn more

10-Day Weather Forecast

Advertisements
Track Severe Weather on mobile